Time;durP1;ratioP1;P1;durP2;ratioP2;P2;SDS_P1;SDS_P2;PMS_P1;PMS_P2;Temp;Humidity;BMP_temperature;BMP_pressure;BME280_temperature;BME280_humidity;BME280_pressure;Samples;Min_cycle;Max_cycle;Signal;HPM_P1;HPM_P2
2022/12/25 00:04:58;;;;;;;9.65;3.67;;;;;;;;;;6162260;22;20024;-72
2022/12/25 00:07:42;;;;;;;8.88;3.55;;;;;;;;;;6157756;22;20023;-71
2022/12/25 00:10:25;;;;;;;11.27;3.80;;;;;;;;;;6177300;22;20174;-72
2022/12/25 00:13:04;;;;;;;13.90;3.70;;;;;;;;;;6189617;22;20062;-71
2022/12/25 00:15:43;;;;;;;9.15;3.35;;;;;;;;;;6198749;22;20027;-71
2022/12/25 00:18:18;;;;;;;9.82;3.95;;;;;;;;;;6181844;22;20362;-71
2022/12/25 00:21:00;;;;;;;11.45;3.75;;;;;;;;;;6168751;23;20288;-72
2022/12/25 00:23:42;;;;;;;12.15;3.88;;;;;;;;;;6198523;22;20031;-72
2022/12/25 00:26:26;;;;;;;12.55;3.50;;;;;;;;;;6226437;22;20022;-71
2022/12/25 00:29:10;;;;;;;7.15;2.95;;;;;;;;;;6196302;22;20031;-72
2022/12/25 00:31:46;;;;;;;8.90;3.28;;;;;;;;;;6207970;22;20092;-71
2022/12/25 00:34:22;;;;;;;9.38;3.40;;;;;;;;;;6229901;22;20019;-71
2022/12/25 00:39:43;;;;;;;9.48;3.90;;;;;;;;;;6202315;22;20162;-72
2022/12/25 00:42:34;;;;;;;8.88;3.22;;;;;;;;;;6225697;22;20027;-72
2022/12/25 00:45:05;;;;;;;8.57;3.17;;;;;;;;;;6188440;22;20030;-72
2022/12/25 00:47:41;;;;;;;10.40;3.78;;;;;;;;;;6255154;22;20027;-72
2022/12/25 00:50:18;;;;;;;10.50;3.47;;;;;;;;;;6196281;22;20557;-71
2022/12/25 00:52:47;;;;;;;13.80;3.28;;;;;;;;;;6149491;22;20027;-72
2022/12/25 01:01:14;;;;;;;11.40;3.45;;;;;;;;;;6173141;22;20078;-73
2022/12/25 01:03:54;;;;;;;7.20;3.13;;;;;;;;;;6186546;22;20015;-72
2022/12/25 01:06:23;;;;;;;7.28;2.90;;;;;;;;;;6180992;22;20023;-72
2022/12/25 01:14:56;;;;;;;9.90;3.35;;;;;;;;;;6238688;22;20069;-71
2022/12/25 01:17:22;;;;;;;9.77;3.17;;;;;;;;;;6214056;22;20019;-73
2022/12/25 01:19:56;;;;;;;11.50;3.70;;;;;;;;;;6159923;22;20025;-71
2022/12/25 01:22:31;;;;;;;6.53;2.60;;;;;;;;;;6251189;22;20258;-72
2022/12/25 01:25:00;;;;;;;11.48;3.38;;;;;;;;;;6267991;22;20027;-71
2022/12/25 01:27:27;;;;;;;6.38;3.28;;;;;;;;;;6262460;22;20019;-72
2022/12/25 01:29:54;;;;;;;9.75;3.53;;;;;;;;;;6238395;22;20403;-72
2022/12/25 01:32:34;;;;;;;13.50;3.45;;;;;;;;;;6201575;22;20108;-71
2022/12/25 01:35:21;;;;;;;9.48;3.20;;;;;;;;;;6263676;22;20020;-71
2022/12/25 01:40:42;;;;;;;11.25;3.38;;;;;;;;;;6184828;22;20022;-72
2022/12/25 01:43:27;;;;;;;9.60;3.78;;;;;;;;;;6268921;22;20029;-72
2022/12/25 01:45:56;;;;;;;8.52;3.35;;;;;;;;;;6318763;22;20026;-72
2022/12/25 01:48:34;;;;;;;13.07;3.70;;;;;;;;;;6296144;22;20023;-72
2022/12/25 01:54:24;;;;;;;9.05;3.33;;;;;;;;;;6250676;22;20179;-72
2022/12/25 01:59:43;;;;;;;10.38;3.65;;;;;;;;;;6225703;22;20031;-72
2022/12/25 02:04:57;;;;;;;8.07;3.40;;;;;;;;;;6231532;22;20031;-72
2022/12/25 02:10:10;;;;;;;7.72;3.03;;;;;;;;;;6208613;22;20023;-72
2022/12/25 02:12:38;;;;;;;8.68;3.28;;;;;;;;;;6266109;22;20085;-73
2022/12/25 02:22:35;;;;;;;10.88;3.58;;;;;;;;;;5912509;23;20027;-73
2022/12/25 02:28:20;;;;;;;7.80;3.08;;;;;;;;;;6138998;23;20209;-73
2022/12/25 02:34:34;;;;;;;11.55;3.85;;;;;;;;;;6015874;23;20133;-73
2022/12/25 02:37:14;;;;;;;7.10;3.30;;;;;;;;;;6095037;23;20021;-74
2022/12/25 02:40:06;;;;;;;9.82;3.38;;;;;;;;;;6222554;22;20083;-73
2022/12/25 09:40:19;;;;;;;3.70;1.60;;;;;;;;;;5936121;23;20033;-72
2022/12/25 09:43:01;;;;;;;3.97;1.92;;;;;;;;;;5911540;23;20203;-71
2022/12/25 09:45:44;;;;;;;4.22;1.80;;;;;;;;;;5916614;23;20035;-72
2022/12/25 09:48:52;;;;;;;5.45;2.42;;;;;;;;;;5991056;23;20025;-72
2022/12/25 09:52:14;;;;;;;5.63;1.77;;;;;;;;;;5969737;23;20086;-72
2022/12/25 09:54:53;;;;;;;5.10;2.22;;;;;;;;;;5988285;23;20105;-73
2022/12/25 10:03:02;;;;;;;3.85;1.90;;;;;;;;;;5937997;23;20035;-73
2022/12/25 10:10:52;;;;;;;6.32;2.25;;;;;;;;;;4979862;28;20424;-72
2022/12/25 10:13:31;;;;;;;4.47;1.92;;;;;;;;;;4935186;28;20058;-74
2022/12/25 10:16:08;;;;;;;4.47;2.35;;;;;;;;;;4941949;28;20075;-75
2022/12/25 10:29:18;;;;;;;4.03;1.63;;;;;;;;;;4977580;27;20522;-75
2022/12/25 10:31:51;;;;;;;5.57;2.30;;;;;;;;;;4963809;28;20160;-72
2022/12/25 10:34:18;;;;;;;6.82;2.55;;;;;;;;;;4918558;28;20129;-72
2022/12/25 10:36:45;;;;;;;8.38;2.35;;;;;;;;;;4908298;28;20050;-73
2022/12/25 10:39:16;;;;;;;8.13;2.67;;;;;;;;;;4930302;28;20059;-72
2022/12/25 10:41:54;;;;;;;9.45;3.47;;;;;;;;;;4891445;28;20062;-73
2022/12/25 10:44:24;;;;;;;8.63;2.70;;;;;;;;;;4924141;28;20051;-72
2022/12/25 10:46:51;;;;;;;7.47;2.42;;;;;;;;;;4960924;28;20133;-73
2022/12/25 10:49:20;;;;;;;6.18;2.70;;;;;;;;;;4922123;28;20263;-70
2022/12/25 10:51:47;;;;;;;9.82;2.90;;;;;;;;;;4925765;28;20055;-73
2022/12/25 10:54:21;;;;;;;9.15;2.80;;;;;;;;;;4993333;28;20216;-72
2022/12/25 10:56:55;;;;;;;6.53;2.67;;;;;;;;;;4981636;28;20057;-73
2022/12/25 10:59:33;;;;;;;6.40;2.70;;;;;;;;;;4938903;28;20141;-72
2022/12/25 11:02:04;;;;;;;6.47;2.35;;;;;;;;;;4886870;28;20095;-71
2022/12/25 11:04:35;;;;;;;7.50;2.88;;;;;;;;;;4937555;28;20061;-71
2022/12/25 11:07:05;;;;;;;7.40;2.70;;;;;;;;;;4973942;28;20070;-74
2022/12/25 11:09:35;;;;;;;5.80;2.33;;;;;;;;;;4987203;28;20564;-75
2022/12/25 11:12:02;;;;;;;8.30;2.78;;;;;;;;;;4936770;28;20069;-74
2022/12/25 11:14:32;;;;;;;8.95;2.95;;;;;;;;;;4969646;28;20241;-73
2022/12/25 11:17:09;;;;;;;7.57;2.85;;;;;;;;;;4960561;28;20053;-71
2022/12/25 11:20:02;;;;;;;14.02;3.08;;;;;;;;;;4921721;28;20061;-76
2022/12/25 11:28:06;;;;;;;5.85;2.42;;;;;;;;;;5049059;27;1448627;-73
2022/12/25 11:30:36;;;;;;;7.28;2.78;;;;;;;;;;4988854;28;20076;-75
2022/12/25 11:38:33;;;;;;;9.75;3.22;;;;;;;;;;5013549;27;20506;-74
2022/12/25 11:41:02;;;;;;;9.68;2.80;;;;;;;;;;4947018;28;20063;-75
2022/12/25 11:46:56;;;;;;;;;;;;;;;;;;;;;
2022/12/25 12:09:07;;;;;;;7.37;2.50;;;;;;;;;;6068661;22;4107577;-75
2022/12/25 12:28:04;;;;;;;;;;;;;;;;;;;;;
2022/12/25 13:06:24;;;;;;;4.57;2.00;;;;;;;;;;5913312;22;7252863;-72
2022/12/25 13:24:39;;;;;;;5.38;2.22;;;;;;;;;;4963725;27;20757;-73
2022/12/25 13:40:34;;;;;;;6.18;2.08;;;;;;;;;;5424222;22;18191279;-73
2022/12/25 14:11:14;;;;;;;5.57;2.22;;;;;;;;;;4647557;27;9790658;-75
2022/12/25 14:29:54;;;;;;;6.43;2.40;;;;;;;;;;5433178;21;17900940;-74
2022/12/25 15:06:29;;;;;;;5.28;2.40;;;;;;;;;;5973203;22;3473820;-72
2022/12/25 15:09:14;;;;;;;6.20;2.42;;;;;;;;;;6005863;23;20029;-72
